Time;durP1;ratioP1;P1;durP2;ratioP2;P2;SDS_P1;SDS_P2;PMS_P1;PMS_P2;Temp;Humidity;BMP_temperature;BMP_pressure;BME280_temperature;BME280_humidity;BME280_pressure;Samples;Min_cycle;Max_cycle;Signal;HPM_P1;HPM_P2
2021/09/24 00:00:57;;;;;;;6.90;3.50;;;;;;;14.71;71.53;97460.54;114391;1183;23273;-81
2021/09/24 00:03:26;;;;;;;5.70;4.00;;;;;;;14.73;71.33;97458.02;114635;1197;22449;-80
2021/09/24 00:05:54;;;;;;;4.60;3.80;;;;;;;14.75;71.56;97459.59;114499;1190;24045;-80
2021/09/24 00:08:20;;;;;;;6.80;3.80;;;;;;;14.78;71.74;97453.58;114548;1197;23871;-81
2021/09/24 00:10:47;;;;;;;6.00;3.80;;;;;;;14.80;71.41;97449.48;114438;1197;22419;-81
2021/09/24 00:13:13;;;;;;;8.30;4.30;;;;;;;14.82;71.32;97446.83;114474;1197;23106;-81
2021/09/24 00:15:39;;;;;;;5.00;3.50;;;;;;;14.83;71.11;97448.29;114167;1197;23311;-81
2021/09/24 00:18:06;;;;;;;5.10;3.80;;;;;;;14.83;70.77;97452.08;114654;1197;24113;-82
2021/09/24 00:20:34;;;;;;;5.90;3.60;;;;;;;14.85;70.36;97461.96;114424;1197;25054;-81
2021/09/24 00:23:01;;;;;;;4.80;3.20;;;;;;;14.89;70.27;97461.42;114596;1197;22946;-81
2021/09/24 00:25:27;;;;;;;7.90;3.50;;;;;;;14.92;69.98;97465.05;114558;1197;24183;-82
2021/09/24 00:27:53;;;;;;;7.60;3.80;;;;;;;14.94;70.12;97459.58;114608;1197;25152;-80
2021/09/24 00:30:20;;;;;;;6.00;3.90;;;;;;;14.96;70.32;97466.89;114506;1192;22598;-81
2021/09/24 00:32:46;;;;;;;6.10;3.60;;;;;;;14.97;69.73;97470.61;114312;1198;22476;-80
2021/09/24 00:35:12;;;;;;;6.00;3.80;;;;;;;14.98;69.85;97472.64;114225;1198;23585;-82
2021/09/24 00:37:41;;;;;;;4.90;3.20;;;;;;;14.97;69.85;97477.13;114274;1198;22474;-81
2021/09/24 00:40:08;;;;;;;5.50;4.20;;;;;;;14.96;69.77;97479.02;114217;1198;22436;-81
2021/09/24 00:42:35;;;;;;;4.90;3.40;;;;;;;14.97;69.96;97483.06;114403;1198;22448;-80
2021/09/24 00:45:04;;;;;;;7.60;3.90;;;;;;;14.95;70.29;97471.45;114500;1198;22455;-81
2021/09/24 00:47:47;;;;;;;4.50;3.40;;;;;;;14.93;70.74;97477.70;114371;1198;22439;-81
2021/09/24 00:50:13;;;;;;;5.10;3.70;;;;;;;14.90;70.68;97477.85;114264;1198;22470;-80
2021/09/24 00:52:39;;;;;;;6.90;4.30;;;;;;;14.85;71.29;97476.00;114061;1192;25038;-80
2021/09/24 00:55:06;;;;;;;4.60;3.40;;;;;;;14.82;71.33;97463.34;114362;1190;24177;-81
2021/09/24 00:57:35;;;;;;;7.40;4.40;;;;;;;14.79;71.14;97451.91;114255;1198;25151;-81
2021/09/24 01:00:04;;;;;;;4.70;3.70;;;;;;;14.79;71.06;97442.52;114269;1198;22442;-80
2021/09/24 01:02:32;;;;;;;5.20;3.30;;;;;;;14.78;70.86;97438.01;114296;1192;22441;-79
2021/09/24 01:04:59;;;;;;;8.60;3.60;;;;;;;14.78;70.96;97434.89;114421;1198;22474;-80
2021/09/24 01:07:25;;;;;;;5.20;3.80;;;;;;;14.77;70.75;97426.36;114156;1198;22438;-81
2021/09/24 01:09:52;;;;;;;4.60;3.10;;;;;;;14.78;70.53;97431.11;114089;1196;25067;-79
2021/09/24 01:12:19;;;;;;;5.80;3.40;;;;;;;14.79;70.48;97429.88;114073;1198;22481;-79
2021/09/24 01:14:45;;;;;;;7.80;4.00;;;;;;;14.81;70.37;97429.47;114030;1198;24560;-81
2021/09/24 01:17:11;;;;;;;5.30;3.50;;;;;;;14.82;70.14;97431.96;114280;1198;22495;-79
2021/09/24 01:19:37;;;;;;;7.90;3.90;;;;;;;14.84;70.04;97426.79;114641;1197;23204;-80
2021/09/24 01:22:04;;;;;;;7.20;4.20;;;;;;;14.84;70.28;97425.92;114163;1198;22555;-80
2021/09/24 01:24:30;;;;;;;6.20;3.90;;;;;;;14.83;69.75;97421.27;114200;1198;23145;-80
2021/09/24 01:27:01;;;;;;;6.60;3.50;;;;;;;14.84;69.86;97422.80;114318;1198;25069;-79
2021/09/24 01:29:30;;;;;;;6.20;3.70;;;;;;;14.86;69.74;97429.90;114301;1197;24240;-81
2021/09/24 01:32:11;;;;;;;6.10;3.80;;;;;;;14.87;69.77;97426.84;114241;1198;24040;-80
2021/09/24 01:34:40;;;;;;;5.70;3.80;;;;;;;14.87;69.65;97428.82;114108;1199;25308;-80
2021/09/24 01:37:08;;;;;;;12.50;4.00;;;;;;;14.89;68.91;97433.79;114063;1198;22561;-81
2021/09/24 01:39:35;;;;;;;5.80;3.70;;;;;;;14.92;68.89;97436.91;114264;1198;24051;-81
2021/09/24 01:42:01;;;;;;;7.20;4.40;;;;;;;14.93;69.21;97438.42;114299;1198;22437;-80
2021/09/24 01:44:28;;;;;;;5.60;3.40;;;;;;;14.93;69.66;97433.84;114024;1198;25114;-79
2021/09/24 01:46:55;;;;;;;7.30;3.80;;;;;;;14.94;69.10;97432.61;114406;1198;25126;-79
2021/09/24 01:49:21;;;;;;;4.50;3.50;;;;;;;14.95;69.06;97427.59;114172;1182;25101;-80
2021/09/24 01:51:49;;;;;;;7.50;3.80;;;;;;;14.95;69.14;97423.98;114069;1198;22456;-80
2021/09/24 01:54:18;;;;;;;6.70;4.10;;;;;;;14.96;69.00;97431.15;114319;1192;24182;-80
2021/09/24 01:56:44;;;;;;;;;;;;;;;14.96;68.73;97421.06;114347;1198;24120;-81
2021/09/24 01:59:11;;;;;;;5.60;4.10;;;;;;;14.96;68.82;97420.29;114303;1198;22445;-80
2021/09/24 02:01:38;;;;;;;5.80;3.60;;;;;;;14.95;69.00;97426.71;114290;1198;22985;-80
2021/09/24 02:04:19;;;;;;;5.10;3.70;;;;;;;14.94;68.66;97425.73;114093;1198;24178;-80
2021/09/24 02:06:46;;;;;;;8.10;3.60;;;;;;;14.96;68.83;97431.96;114382;1192;22480;-81
2021/09/24 02:09:13;;;;;;;5.30;3.10;;;;;;;14.98;68.70;97446.80;114060;1198;22815;-80
2021/09/24 02:11:39;;;;;;;5.50;3.50;;;;;;;14.99;69.03;97448.80;114418;1198;25143;-80
2021/09/24 02:14:06;;;;;;;5.40;3.60;;;;;;;15.00;68.37;97454.77;114217;1198;22433;-81
2021/09/24 02:16:47;;;;;;;4.70;3.40;;;;;;;15.03;68.00;97466.19;114221;1198;22464;-80
2021/09/24 02:19:13;;;;;;;5.60;3.50;;;;;;;15.05;68.63;97496.27;114548;1198;24065;-85
2021/09/24 02:21:42;;;;;;;5.80;3.20;;;;;;;14.98;70.87;97514.73;114209;1186;23936;-85
2021/09/24 02:24:08;;;;;;;5.30;3.00;;;;;;;14.78;73.74;97520.55;114236;1197;25075;-89
2021/09/24 02:26:34;;;;;;;5.50;2.80;;;;;;;14.52;75.88;97520.56;114278;1192;22511;-84
2021/09/24 02:29:01;;;;;;;3.60;2.90;;;;;;;14.26;78.47;97526.02;114046;1198;25219;-87
2021/09/24 02:31:27;;;;;;;6.20;2.70;;;;;;;14.05;79.24;97516.30;114392;1198;24084;-85
2021/09/24 02:33:55;;;;;;;3.60;2.30;;;;;;;13.88;79.75;97511.05;114089;1198;22985;-85
2021/09/24 02:36:37;;;;;;;6.10;2.20;;;;;;;13.75;79.94;97518.95;114070;1198;22431;-85
2021/09/24 02:39:05;;;;;;;4.90;2.00;;;;;;;13.68;80.25;97524.77;114279;1198;24098;-86
2021/09/24 02:41:34;;;;;;;4.30;2.00;;;;;;;13.64;80.63;97522.44;114309;1198;22416;-85
2021/09/24 02:44:02;;;;;;;3.70;2.20;;;;;;;13.60;80.97;97531.36;114359;1198;25177;-88
2021/09/24 02:46:30;;;;;;;2.70;2.00;;;;;;;13.54;80.82;97545.36;114077;1198;22531;-86
2021/09/24 02:48:57;;;;;;;5.00;2.00;;;;;;;13.52;80.44;97539.96;114380;1198;25443;-83
2021/09/24 02:51:24;;;;;;;1.90;1.60;;;;;;;13.50;80.54;97542.93;114137;1198;23422;-85
2021/09/24 02:53:50;;;;;;;2.50;1.70;;;;;;;13.47;80.16;97555.81;114025;1198;22446;-86
2021/09/24 02:56:17;;;;;;;1.50;1.40;;;;;;;13.43;80.36;97567.60;114152;1198;25122;-86
2021/09/24 02:58:43;;;;;;;3.60;1.50;;;;;;;13.41;80.51;97571.83;114314;1198;25152;-86
2021/09/24 03:01:10;;;;;;;3.90;1.50;;;;;;;13.36;81.01;97568.43;114210;1184;23745;-87
2021/09/24 03:03:37;;;;;;;3.90;1.40;;;;;;;13.29;81.37;97570.30;114056;1198;22429;-87
2021/09/24 03:06:03;;;;;;;2.80;1.20;;;;;;;13.18;81.99;97576.61;113859;1194;22433;-86
2021/09/24 03:08:30;;;;;;;2.80;1.20;;;;;;;13.09;81.57;97575.30;113964;1190;25090;-89
2021/09/24 03:10:56;;;;;;;3.40;1.30;;;;;;;13.04;81.81;97583.20;113876;1198;22420;-88
2021/09/24 03:13:23;;;;;;;2.20;1.50;;;;;;;13.00;81.52;97592.69;114523;1198;25639;-87
2021/09/24 03:15:54;;;;;;;2.80;1.10;;;;;;;12.96;81.80;97599.44;113946;1191;22461;-87
2021/09/24 03:18:23;;;;;;;4.10;1.00;;;;;;;12.87;81.59;97590.09;113742;1198;22475;-86
2021/09/24 03:20:51;;;;;;;4.20;0.90;;;;;;;12.80;81.66;97589.40;113819;1198;22435;-88
2021/09/24 03:23:18;;;;;;;2.80;0.80;;;;;;;12.74;81.46;97592.98;113871;1198;22422;-87
2021/09/24 03:25:49;;;;;;;3.40;0.90;;;;;;;12.69;81.66;97592.30;114109;1198;24147;-84
2021/09/24 03:28:16;;;;;;;2.20;1.10;;;;;;;12.65;81.53;97590.30;114235;1198;22449;-85
2021/09/24 03:30:43;;;;;;;2.50;1.20;;;;;;;12.61;81.81;97591.46;113900;1198;25112;-87
2021/09/24 03:33:10;;;;;;;1.60;0.80;;;;;;;12.54;82.00;97593.29;114023;1198;22454;-89
2021/09/24 03:35:41;;;;;;;3.60;0.90;;;;;;;12.51;82.03;97593.63;113835;1198;25103;-86
2021/09/24 03:38:08;;;;;;;2.60;1.10;;;;;;;12.47;82.21;97604.07;114280;1198;22431;-85
2021/09/24 03:40:34;;;;;;;1.30;1.10;;;;;;;12.45;82.35;97612.77;113755;1199;22437;-86
2021/09/24 03:43:00;;;;;;;3.10;0.90;;;;;;;12.41;82.79;97613.16;114180;1198;25083;-86
2021/09/24 03:45:28;;;;;;;2.90;1.10;;;;;;;12.38;82.66;97609.56;114134;1198;23545;-85
2021/09/24 03:47:55;;;;;;;2.70;1.20;;;;;;;12.39;82.86;97614.75;113960;1198;22454;-84
2021/09/24 03:50:24;;;;;;;3.70;1.00;;;;;;;12.40;82.66;97613.38;114011;1198;25202;-86
2021/09/24 03:52:53;;;;;;;3.20;1.30;;;;;;;12.41;82.90;97621.13;113911;1198;22431;-85
2021/09/24 03:55:20;;;;;;;2.60;1.40;;;;;;;12.41;82.92;97624.03;114059;1198;22791;-84
2021/09/24 03:57:47;;;;;;;2.30;1.30;;;;;;;12.41;83.14;97623.42;114190;1198;22979;-84
2021/09/24 04:00:17;;;;;;;1.90;1.40;;;;;;;12.43;83.05;97612.94;113953;1198;22434;-84
2021/09/24 04:02:43;;;;;;;3.60;1.50;;;;;;;12.43;83.12;97614.18;114245;1198;22449;-86
2021/09/24 04:05:10;;;;;;;1.70;1.00;;;;;;;12.41;83.09;97617.20;114304;1198;22948;-83
2021/09/24 04:07:36;;;;;;;4.10;1.30;;;;;;;12.40;82.85;97613.88;114246;1198;22745;-84
2021/09/24 04:10:07;;;;;;;3.70;1.60;;;;;;;12.38;82.76;97612.83;114274;1198;23218;-84
2021/09/24 04:12:34;;;;;;;4.10;1.10;;;;;;;12.37;82.85;97614.54;114461;1193;24034;-83
2021/09/24 04:15:04;;;;;;;4.70;1.60;;;;;;;12.37;82.54;97617.04;114366;1198;25226;-85
2021/09/24 04:17:31;;;;;;;2.20;1.50;;;;;;;12.37;82.46;97619.29;114259;1198;25080;-83
2021/09/24 04:19:57;;;;;;;3.50;1.50;;;;;;;12.35;81.96;97632.45;114028;1198;22443;-86
2021/09/24 04:22:23;;;;;;;1.90;1.40;;;;;;;12.33;81.85;97631.02;114498;1198;22443;-84
2021/09/24 04:24:50;;;;;;;2.10;1.20;;;;;;;12.34;81.85;97647.02;114471;1197;23969;-84
2021/09/24 04:27:16;;;;;;;3.10;1.40;;;;;;;12.33;81.79;97657.23;114214;1198;22595;-84
2021/09/24 04:29:43;;;;;;;5.30;1.70;;;;;;;12.31;81.88;97665.33;114308;1190;23024;-84
2021/09/24 04:32:09;;;;;;;4.10;2.10;;;;;;;12.29;81.86;97654.41;114361;1198;22443;-83
2021/09/24 04:34:36;;;;;;;2.90;1.30;;;;;;;12.25;81.79;97651.70;114212;1198;22435;-83
2021/09/24 04:37:02;;;;;;;4.10;1.20;;;;;;;12.24;81.59;97658.73;114587;1193;22437;-83
2021/09/24 04:39:29;;;;;;;3.50;1.40;;;;;;;12.21;81.05;97653.94;114260;1198;24066;-83
2021/09/24 04:41:55;;;;;;;4.70;1.90;;;;;;;12.20;80.42;97649.20;114226;1198;25066;-83
2021/09/24 04:44:21;;;;;;;3.10;1.30;;;;;;;12.20;79.96;97651.80;113907;1198;22724;-83
2021/09/24 04:46:48;;;;;;;2.00;1.30;;;;;;;12.20;79.55;97653.98;114341;1198;22559;-82
2021/09/24 04:49:14;;;;;;;4.00;1.30;;;;;;;12.18;79.37;97659.45;114416;1198;22456;-83
2021/09/24 04:51:41;;;;;;;4.50;1.70;;;;;;;12.20;79.49;97664.63;114480;1198;22425;-83
2021/09/24 04:54:10;;;;;;;5.20;1.70;;;;;;;12.18;79.02;97668.35;114113;1198;22435;-82
2021/09/24 04:56:38;;;;;;;6.10;1.50;;;;;;;12.15;78.97;97678.77;114580;1198;25034;-82
2021/09/24 04:59:05;;;;;;;4.40;1.00;;;;;;;12.14;78.40;97681.94;114072;1195;25246;-82
2021/09/24 05:01:32;;;;;;;5.50;2.40;;;;;;;12.16;78.03;97680.14;114215;1198;22459;-81
2021/09/24 05:04:02;;;;;;;4.20;1.50;;;;;;;12.18;77.91;97678.61;114185;1198;24059;-82
2021/09/24 05:06:31;;;;;;;5.60;2.30;;;;;;;12.18;77.61;97680.96;114372;1198;25042;-81
2021/09/24 05:08:57;;;;;;;5.10;1.50;;;;;;;12.17;77.25;97688.13;114420;1197;23225;-82
2021/09/24 05:11:23;;;;;;;3.80;1.80;;;;;;;12.19;77.02;97689.16;114108;1198;24270;-82
2021/09/24 05:13:50;;;;;;;4.60;1.40;;;;;;;12.19;77.56;97689.81;114240;1198;24088;-81
2021/09/24 05:16:16;;;;;;;4.20;1.50;;;;;;;12.20;77.26;97696.95;114609;1198;22444;-81
2021/09/24 05:18:43;;;;;;;4.90;1.90;;;;;;;12.20;77.31;97695.65;114314;1198;25293;-82
2021/09/24 05:21:12;;;;;;;5.30;1.20;;;;;;;12.18;77.34;97705.14;114365;1198;22529;-82
2021/09/24 05:23:39;;;;;;;5.60;1.80;;;;;;;12.19;77.38;97705.36;114146;1198;25062;-82
2021/09/24 05:26:06;;;;;;;8.30;2.00;;;;;;;12.19;77.19;97710.71;114153;1198;22461;-81
2021/09/24 05:28:32;;;;;;;5.60;1.80;;;;;;;12.20;76.80;97711.96;114080;1198;22440;-81
2021/09/24 05:30:58;;;;;;;6.20;2.20;;;;;;;12.22;77.34;97718.58;113975;1199;22481;-81
2021/09/24 05:33:24;;;;;;;3.80;1.60;;;;;;;12.23;76.78;97712.02;114290;1193;22533;-82
2021/09/24 05:36:05;;;;;;;6.60;2.00;;;;;;;12.26;76.89;97710.44;114324;1198;25125;-80
2021/09/24 05:38:46;;;;;;;9.20;2.50;;;;;;;12.26;77.01;97711.41;114399;1198;23403;-82
2021/09/24 05:41:13;;;;;;;4.90;1.90;;;;;;;12.27;77.40;97714.63;114238;1184;22568;-82
2021/09/24 05:43:39;;;;;;;5.50;1.70;;;;;;;12.27;77.75;97720.36;114443;1194;22458;-82
2021/09/24 05:46:09;;;;;;;4.50;2.60;;;;;;;12.28;78.13;97726.98;114196;1198;24081;-82
2021/09/24 05:48:36;;;;;;;6.00;2.20;;;;;;;12.27;78.37;97730.85;114085;1199;25294;-82
2021/09/24 05:51:17;;;;;;;6.40;2.80;;;;;;;12.26;78.81;97726.38;114254;1198;22424;-84
2021/09/24 05:53:45;;;;;;;4.00;1.80;;;;;;;12.24;79.32;97729.54;114140;1198;22553;-82
2021/09/24 05:56:12;;;;;;;4.50;2.30;;;;;;;12.23;79.11;97724.20;114111;1198;22439;-83
2021/09/24 05:58:38;;;;;;;5.40;2.60;;;;;;;12.22;79.21;97728.52;114367;1198;25129;-82
2021/09/24 06:01:04;;;;;;;5.50;2.20;;;;;;;12.22;79.21;97738.84;114247;1198;22442;-83
2021/09/24 06:03:31;;;;;;;8.90;2.50;;;;;;;12.21;79.19;97739.05;114495;1197;25273;-81
2021/09/24 06:05:57;;;;;;;7.20;1.80;;;;;;;12.20;78.95;97737.85;114246;1198;22431;-81
2021/09/24 06:08:23;;;;;;;6.00;2.30;;;;;;;12.21;78.76;97736.10;114169;1198;25957;-83
2021/09/24 06:10:50;;;;;;;5.30;2.00;;;;;;;12.20;79.20;97736.87;114240;1198;23593;-82
2021/09/24 06:13:16;;;;;;;10.20;2.90;;;;;;;12.17;79.57;97747.23;114447;1198;22480;-81
2021/09/24 06:16:00;;;;;;;7.30;1.80;;;;;;;12.15;79.15;97754.12;114213;1198;22416;-83
2021/09/24 06:18:33;;;;;;;5.40;2.00;;;;;;;12.13;79.22;97758.64;114146;1198;23115;-82
2021/09/24 06:21:05;;;;;;;9.70;2.60;;;;;;;12.09;79.33;97765.04;114416;1196;22426;-82
2021/09/24 06:23:32;;;;;;;11.50;2.70;;;;;;;12.07;79.23;97769.67;114258;1198;24032;-82
2021/09/24 06:26:03;;;;;;;8.20;2.30;;;;;;;12.06;79.31;97783.75;114099;1198;25112;-82
2021/09/24 06:28:32;;;;;;;8.10;2.50;;;;;;;12.06;79.37;97793.73;114623;1198;22497;-81
2021/09/24 06:31:01;;;;;;;8.80;2.20;;;;;;;12.05;79.25;97800.56;114706;1198;22417;-82
2021/09/24 06:33:28;;;;;;;4.90;2.40;;;;;;;12.05;79.41;97800.79;114123;1198;25155;-82
2021/09/24 06:35:54;;;;;;;5.20;1.80;;;;;;;12.06;79.01;97795.38;114426;1198;22620;-81
2021/09/24 06:38:21;;;;;;;8.50;2.30;;;;;;;12.10;78.41;97795.65;114504;1198;22448;-81
2021/09/24 06:40:48;;;;;;;7.70;2.60;;;;;;;12.14;77.95;97792.16;114246;1198;25036;-80
2021/09/24 06:43:15;;;;;;;7.00;2.30;;;;;;;12.16;77.54;97797.68;114076;1198;22436;-80
2021/09/24 06:45:42;;;;;;;6.30;2.20;;;;;;;12.19;77.28;97796.32;114431;1197;26324;-81
2021/09/24 06:48:08;;;;;;;5.00;1.90;;;;;;;12.20;76.55;97797.46;115085;1190;22441;-81
2021/09/24 06:50:36;;;;;;;10.00;2.70;;;;;;;12.20;76.09;97802.80;114358;1190;24163;-81
2021/09/24 06:53:17;;;;;;;6.80;2.20;;;;;;;12.21;75.87;97811.77;114489;1198;23119;-81
2021/09/24 06:55:43;;;;;;;9.10;1.90;;;;;;;12.21;75.40;97819.36;114380;1190;22429;-81
2021/09/24 06:58:09;;;;;;;6.30;1.80;;;;;;;12.23;73.79;97819.53;114193;1198;22986;-82
2021/09/24 07:00:36;;;;;;;7.90;1.80;;;;;;;12.25;73.49;97818.82;114259;1198;22555;-81
2021/09/24 07:03:02;;;;;;;6.40;1.40;;;;;;;12.25;72.91;97818.83;114216;1196;22549;-80
2021/09/24 07:05:43;;;;;;;6.20;1.70;;;;;;;12.23;72.31;97815.98;114307;1198;22464;-82
2021/09/24 07:08:09;;;;;;;8.30;1.70;;;;;;;12.21;72.86;97819.08;114185;1198;22471;-81
2021/09/24 07:10:35;;;;;;;5.90;1.30;;;;;;;12.23;72.83;97819.36;114187;1198;25243;-82
2021/09/24 07:13:02;;;;;;;6.10;1.30;;;;;;;12.27;72.32;97823.02;114264;1193;22664;-81
2021/09/24 07:15:28;;;;;;;9.70;2.00;;;;;;;12.31;72.95;97825.75;114371;1193;22438;-81
2021/09/24 07:18:11;;;;;;;7.50;1.50;;;;;;;12.35;73.10;97819.48;114372;1198;22644;-81
2021/09/24 07:20:38;;;;;;;4.20;1.30;;;;;;;12.40;72.37;97821.71;114430;1198;24059;-81
2021/09/24 07:23:05;;;;;;;7.00;1.60;;;;;;;12.45;71.35;97834.45;114609;1198;22735;-82
2021/09/24 07:25:31;;;;;;;4.60;1.30;;;;;;;12.47;70.84;97835.15;114313;1198;22430;-81
2021/09/24 07:28:12;;;;;;;14.10;1.80;;;;;;;12.49;70.95;97841.10;114566;1198;22474;-80
2021/09/24 07:30:39;;;;;;;4.90;1.80;;;;;;;12.51;70.72;97846.45;113959;1193;22455;-81
2021/09/24 07:33:07;;;;;;;7.80;1.60;;;;;;;12.54;70.66;97842.42;113920;1192;24167;-80
2021/09/24 07:35:34;;;;;;;8.60;1.20;;;;;;;12.61;70.63;97855.20;114002;1198;22408;-81
2021/09/24 07:38:18;;;;;;;7.40;1.70;;;;;;;12.67;69.69;97857.08;113841;1193;22425;-81
2021/09/24 07:40:45;;;;;;;;;;;;;;;12.68;69.16;97854.88;114106;1198;23623;-82
2021/09/24 07:43:12;;;;;;;5.50;1.00;;;;;;;12.69;69.89;97862.80;114623;1198;22416;-80
2021/09/24 07:45:38;;;;;;;8.40;1.60;;;;;;;12.70;69.87;97865.05;114577;1193;22427;-80
2021/09/24 07:48:05;;;;;;;11.40;2.30;;;;;;;12.75;69.94;97865.98;114511;1198;22427;-81
2021/09/24 07:50:31;;;;;;;6.30;1.40;;;;;;;12.78;68.93;97859.85;114996;1184;24166;-81
2021/09/24 07:52:59;;;;;;;6.60;1.40;;;;;;;12.81;69.39;97856.08;114963;1198;22695;-80
2021/09/24 07:55:25;;;;;;;10.80;2.00;;;;;;;12.84;69.22;97845.25;114527;1198;23197;-80
2021/09/24 07:57:55;;;;;;;11.70;2.40;;;;;;;12.92;69.03;97846.17;114482;1198;23180;-81
2021/09/24 08:00:24;;;;;;;10.90;1.90;;;;;;;12.98;69.43;97860.54;114882;1198;27436;-79
2021/09/24 08:02:51;;;;;;;10.10;2.00;;;;;;;13.02;69.52;97855.77;114654;1197;22441;-81
2021/09/24 08:05:17;;;;;;;8.30;1.80;;;;;;;12.98;68.62;97857.64;114610;1197;22737;-80
2021/09/24 08:07:44;;;;;;;7.60;1.80;;;;;;;12.95;69.29;97860.70;114745;1197;23060;-81
2021/09/24 08:10:11;;;;;;;6.40;1.80;;;;;;;12.90;69.46;97861.48;114666;1198;26421;-81
2021/09/24 08:12:37;;;;;;;9.00;2.40;;;;;;;12.89;70.21;97865.63;114720;1198;25030;-79
2021/09/24 08:15:05;;;;;;;10.00;1.90;;;;;;;12.90;70.87;97870.34;114445;1198;22441;-81
2021/09/24 08:17:31;;;;;;;5.60;2.10;;;;;;;12.94;70.34;97870.71;114784;1197;22444;-81
2021/09/24 08:19:58;;;;;;;9.50;2.20;;;;;;;13.00;69.70;97872.51;114706;1198;22571;-79
2021/09/24 08:22:26;;;;;;;8.30;2.20;;;;;;;13.06;69.15;97871.95;114780;1197;23207;-81
2021/09/24 08:24:53;;;;;;;12.80;3.00;;;;;;;13.09;69.09;97879.21;114485;1193;22573;-81
2021/09/24 08:27:19;;;;;;;12.20;2.70;;;;;;;13.10;69.43;97881.30;114784;1193;22446;-80
2021/09/24 08:29:45;;;;;;;6.60;2.20;;;;;;;13.07;69.33;97890.34;114485;1190;24149;-81
2021/09/24 08:32:11;;;;;;;8.60;2.20;;;;;;;13.03;69.54;97896.66;114218;1198;25264;-80
2021/09/24 08:34:38;;;;;;;7.10;2.20;;;;;;;12.99;70.11;97897.16;113890;1198;24061;-80
2021/09/24 08:37:19;;;;;;;14.30;2.40;;;;;;;12.99;70.67;97890.72;114331;1198;22443;-82
2021/09/24 08:40:00;;;;;;;8.90;2.80;;;;;;;13.01;70.24;97896.45;114161;1198;22575;-79
2021/09/24 08:42:26;;;;;;;10.30;2.40;;;;;;;13.03;70.49;97900.72;114335;1198;22620;-81
2021/09/24 08:44:53;;;;;;;7.00;2.30;;;;;;;13.04;70.43;97903.02;114216;1198;22476;-81
2021/09/24 08:47:20;;;;;;;11.10;2.70;;;;;;;13.04;69.74;97898.91;114152;1198;22545;-80
2021/09/24 08:49:47;;;;;;;7.30;2.10;;;;;;;13.03;69.97;97908.91;114287;1198;22431;-81
2021/09/24 08:52:14;;;;;;;11.50;3.30;;;;;;;12.99;68.38;97912.74;114053;1190;25206;-82
2021/09/24 08:54:40;;;;;;;8.70;2.20;;;;;;;12.98;69.00;97912.52;114339;1198;22426;-81
2021/09/24 08:57:11;;;;;;;7.60;2.00;;;;;;;12.97;68.95;97908.04;114128;1193;22682;-82
2021/09/24 08:59:38;;;;;;;15.40;3.10;;;;;;;12.96;68.93;97916.95;114141;1198;25111;-81
2021/09/24 09:02:08;;;;;;;6.10;2.00;;;;;;;12.98;68.20;97922.74;114132;1198;22445;-81
2021/09/24 09:04:51;;;;;;;12.70;2.40;;;;;;;12.98;67.33;97928.92;114319;1198;22587;-81
2021/09/24 09:07:21;;;;;;;11.00;3.40;;;;;;;13.02;66.70;97926.52;113879;1198;25090;-82
2021/09/24 09:09:51;;;;;;;4.80;2.00;;;;;;;13.06;66.75;97933.90;114088;1198;22495;-81
2021/09/24 09:12:24;;;;;;;6.00;1.70;;;;;;;13.08;66.51;97933.25;114291;1184;24975;-82
2021/09/24 09:15:11;;;;;;;6.00;2.60;;;;;;;13.10;66.22;97932.97;114222;1198;22847;-81
2021/09/24 09:17:43;;;;;;;8.40;2.30;;;;;;;13.16;66.05;97935.05;114078;1198;25324;-80
2021/09/24 09:20:24;;;;;;;9.50;2.30;;;;;;;13.19;66.40;97941.11;114191;1198;23216;-80
2021/09/24 09:23:05;;;;;;;6.20;2.10;;;;;;;13.23;66.27;97939.91;113985;1198;22575;-83
2021/09/24 09:25:37;;;;;;;7.80;2.10;;;;;;;13.23;65.85;97938.65;114141;1198;22502;-81
2021/09/24 09:28:10;;;;;;;6.80;2.70;;;;;;;13.22;66.45;97943.61;114550;1198;24139;-81
2021/09/24 09:30:40;;;;;;;7.80;2.30;;;;;;;13.22;66.02;97947.83;113924;1198;22438;-81
2021/09/24 09:33:14;;;;;;;6.40;2.10;;;;;;;13.21;66.05;97949.02;114260;1198;22430;-81
2021/09/24 09:36:02;;;;;;;10.00;2.40;;;;;;;13.19;66.16;97945.64;114044;1191;24168;-80
2021/09/24 09:38:37;;;;;;;5.10;2.00;;;;;;;13.23;66.76;97946.63;113902;1198;24068;-81
2021/09/24 09:41:21;;;;;;;5.20;1.70;;;;;;;13.28;66.45;97955.70;114160;1198;25110;-79
2021/09/24 09:43:59;;;;;;;9.10;2.50;;;;;;;13.36;65.63;97948.67;114104;1198;22463;-80
2021/09/24 09:46:32;;;;;;;4.60;1.70;;;;;;;13.46;64.97;97953.25;114180;1198;22437;-81
2021/09/24 09:49:09;;;;;;;4.60;1.80;;;;;;;13.66;65.83;97954.14;114159;1198;23964;-82
2021/09/24 09:51:38;;;;;;;6.70;2.50;;;;;;;13.88;65.17;97960.36;114037;1198;22428;-80
2021/09/24 09:54:06;;;;;;;6.90;2.20;;;;;;;14.05;63.98;97963.42;114264;1198;24089;-81
2021/09/24 09:56:46;;;;;;;7.30;2.20;;;;;;;14.09;63.42;97968.06;114239;1198;23187;-81
2021/09/24 09:59:27;;;;;;;8.30;2.30;;;;;;;14.01;64.39;97973.89;114165;1198;22500;-81
2021/09/24 10:02:22;;;;;;;8.70;2.50;;;;;;;13.91;63.94;97975.46;114214;1198;25127;-81
2021/09/24 10:04:52;;;;;;;10.30;2.40;;;;;;;13.77;64.95;97985.08;113898;1198;22494;-81
2021/09/24 10:07:38;;;;;;;8.00;2.60;;;;;;;13.71;65.56;97988.05;114042;1198;26264;-81
2021/09/24 10:10:09;;;;;;;6.50;2.70;;;;;;;13.67;65.05;97991.01;113856;1198;23519;-80
2021/09/24 10:12:37;;;;;;;5.60;2.50;;;;;;;13.68;65.19;97993.30;114078;1190;22545;-82
2021/09/24 10:15:04;;;;;;;13.30;3.10;;;;;;;13.69;65.72;97997.30;114215;1197;23934;-81
2021/09/24 10:17:31;;;;;;;8.10;2.10;;;;;;;13.74;65.52;98000.52;114154;1198;22456;-80
2021/09/24 10:19:57;;;;;;;7.50;2.90;;;;;;;13.83;64.40;97995.36;113913;1182;24042;-80
2021/09/24 10:22:25;;;;;;;8.40;2.20;;;;;;;13.97;63.66;97999.65;113937;1198;22567;-80
2021/09/24 10:24:53;;;;;;;8.30;3.40;;;;;;;14.05;63.87;98003.78;114261;1198;22463;-81
2021/09/24 10:27:26;;;;;;;7.70;2.80;;;;;;;14.14;64.84;98005.40;114019;1198;25116;-81
2021/09/24 10:29:54;;;;;;;10.20;2.70;;;;;;;14.18;63.32;98006.80;114371;1198;22426;-81
2021/09/24 10:32:26;;;;;;;9.10;2.30;;;;;;;14.14;63.28;98012.08;114109;1198;25167;-80
2021/09/24 10:35:11;;;;;;;7.60;2.40;;;;;;;14.07;63.11;98011.88;114054;1198;24257;-81
2021/09/24 10:37:40;;;;;;;5.60;2.20;;;;;;;13.98;63.42;98012.52;114383;1197;22421;-80
2021/09/24 10:40:22;;;;;;;;;;;;;;;13.94;63.79;98008.14;114342;1194;25828;-81
2021/09/24 10:43:01;;;;;;;6.10;2.20;;;;;;;13.98;63.63;98007.54;114213;1196;24176;-81
2021/09/24 10:45:40;;;;;;;6.40;2.00;;;;;;;14.02;64.08;98009.54;115376;1197;25041;-80
2021/09/24 10:48:23;;;;;;;;;;;;;;;14.11;64.16;98006.01;114820;1192;25066;-81
2021/09/24 10:51:00;;;;;;;5.80;2.00;;;;;;;14.25;63.31;97999.61;115333;1190;22839;-80
2021/09/24 10:53:34;;;;;;;3.60;1.60;;;;;;;14.37;61.95;98011.39;114592;1192;23098;-81
2021/09/24 10:56:01;;;;;;;4.20;1.50;;;;;;;14.37;61.39;98012.20;114341;1198;24164;-80
2021/09/24 10:58:27;;;;;;;10.70;2.60;;;;;;;14.36;61.08;98008.54;114758;1198;22451;-80
2021/09/24 11:01:04;;;;;;;3.70;1.60;;;;;;;14.38;61.51;98005.95;115181;1190;24899;-80
2021/09/24 11:03:33;;;;;;;6.70;1.70;;;;;;;14.36;60.38;98005.19;114853;1198;25170;-80
2021/09/24 11:06:02;;;;;;;5.60;1.70;;;;;;;14.33;60.87;98010.96;114587;1198;22840;-80
2021/09/24 11:08:38;;;;;;;2.50;1.50;;;;;;;14.28;61.36;98013.77;114667;1198;24172;-80
2021/09/24 11:11:23;;;;;;;4.80;1.80;;;;;;;14.22;62.74;98022.99;114493;1198;22434;-80
2021/09/24 11:14:01;;;;;;;7.50;2.50;;;;;;;14.19;63.18;98020.60;114404;1198;22789;-79
2021/09/24 11:16:48;;;;;;;6.60;2.00;;;;;;;14.17;62.57;98020.66;114117;1198;22484;-79
2021/09/24 11:19:39;;;;;;;5.60;2.30;;;;;;;14.13;63.04;98028.57;113969;1198;22508;-82
2021/09/24 11:22:15;;;;;;;5.50;1.60;;;;;;;14.02;62.66;98030.90;114213;1198;22415;-81
2021/09/24 11:25:11;;;;;;;8.60;2.10;;;;;;;13.94;62.92;98028.61;114046;1198;22429;-82
2021/09/24 11:27:38;;;;;;;4.10;2.30;;;;;;;13.89;62.89;98029.95;114581;1198;24134;-81
2021/09/24 11:30:05;;;;;;;8.10;2.30;;;;;;;13.85;63.66;98028.64;114294;1198;22435;-82
2021/09/24 11:32:53;;;;;;;5.90;2.80;;;;;;;13.89;64.00;98027.97;114223;1198;24096;-81
2021/09/24 11:35:29;;;;;;;7.80;2.30;;;;;;;13.99;63.85;98022.59;114273;1190;22974;-80